createdAt,value
2022-10-25T00:01:14.711Z,0.80
2022-10-25T00:03:41.366Z,0.70
2022-10-25T00:06:10.472Z,0.87
2022-10-25T00:08:37.229Z,0.70
2022-10-25T00:11:04.696Z,0.60
2022-10-25T00:13:31.442Z,1.00
2022-10-25T00:15:58.338Z,0.67
2022-10-25T00:18:25.260Z,0.90
2022-10-25T00:20:51.903Z,1.00
2022-10-25T00:23:18.507Z,0.80
2022-10-25T00:25:45.309Z,0.80
2022-10-25T00:28:11.916Z,1.07
2022-10-25T00:30:38.507Z,1.20
2022-10-25T00:33:05.114Z,1.40
2022-10-25T00:35:31.720Z,1.40
2022-10-25T00:37:58.419Z,1.30
2022-10-25T00:40:25.021Z,1.70
2022-10-25T00:42:51.631Z,1.63
2022-10-25T00:45:28.104Z,1.60
2022-10-25T00:48:09.671Z,1.30
2022-10-25T00:50:47.189Z,1.50
2022-10-25T00:53:21.948Z,1.70
2022-10-25T00:56:35.063Z,1.30
2022-10-25T00:59:05.531Z,1.63
2022-10-25T01:01:32.864Z,1.40
2022-10-25T01:04:07.952Z,1.40
2022-10-25T01:06:39.102Z,1.60
2022-10-25T01:09:08.785Z,2.40
2022-10-25T01:11:37.667Z,2.17
2022-10-25T01:14:07.352Z,1.93
2022-10-25T01:16:49.398Z,2.40
2022-10-25T01:19:52.756Z,2.00
2022-10-25T01:22:28.201Z,1.70
2022-10-25T01:25:25.139Z,1.80
2022-10-25T01:28:24.061Z,2.00
2022-10-25T01:31:24.537Z,2.37
2022-10-25T01:33:54.121Z,1.73
2022-10-25T01:36:59.412Z,1.70
2022-10-25T01:40:06.686Z,1.50
2022-10-25T01:42:44.649Z,1.67
2022-10-25T01:45:24.510Z,2.20
2022-10-25T01:48:07.943Z,1.90
2022-10-25T01:50:42.490Z,1.97
2022-10-25T01:53:10.303Z,2.17
2022-10-25T01:55:39.167Z,1.97
2022-10-25T01:58:27.619Z,2.00
2022-10-25T02:01:07.251Z,1.90
2022-10-25T02:03:46.596Z,1.93
2022-10-25T02:06:30.066Z,1.67
2022-10-25T02:09:06.706Z,2.00
2022-10-25T02:11:33.827Z,2.10
2022-10-25T02:14:28.776Z,2.30
2022-10-25T02:17:07.627Z,2.00
2022-10-25T02:19:38.104Z,1.83
2022-10-25T02:22:08.766Z,2.37
2022-10-25T02:24:36.419Z,2.43
2022-10-25T02:27:06.346Z,1.80
2022-10-25T02:29:34.125Z,2.63
2022-10-25T02:32:03.590Z,1.87
2022-10-25T02:34:30.692Z,2.23
2022-10-25T02:36:57.392Z,2.20
2022-10-25T02:39:30.499Z,2.00
2022-10-25T02:45:39.399Z,1.87
2022-10-25T02:48:06.159Z,1.90
2022-10-25T02:50:32.744Z,1.87
2022-10-25T02:52:59.327Z,2.60
2022-10-25T02:55:25.892Z,2.80
2022-10-25T02:57:52.471Z,2.40
2022-10-25T03:00:19.183Z,2.40
2022-10-25T03:02:46.200Z,2.23
2022-10-25T03:05:13.054Z,2.47
2022-10-25T03:07:39.653Z,2.10
2022-10-25T03:10:07.058Z,2.47
2022-10-25T03:12:33.631Z,2.47
2022-10-25T03:15:00.212Z,2.73
2022-10-25T03:17:26.774Z,2.67
2022-10-25T03:19:53.368Z,2.00
2022-10-25T03:22:20.051Z,2.50
2022-10-25T03:24:46.663Z,2.30
2022-10-25T03:27:13.230Z,1.93
2022-10-25T03:29:39.907Z,1.73
2022-10-25T03:32:07.688Z,2.03
2022-10-25T03:34:34.561Z,2.00
2022-10-25T03:37:01.168Z,1.90
2022-10-25T03:39:27.823Z,1.73
2022-10-25T03:41:54.398Z,1.83
2022-10-25T03:44:21.085Z,2.00
2022-10-25T03:46:47.719Z,2.60
2022-10-25T03:49:14.324Z,2.30
2022-10-25T03:51:40.983Z,1.87
2022-10-25T03:54:07.813Z,2.20
2022-10-25T03:56:34.425Z,3.07
2022-10-25T03:59:01.068Z,2.20
2022-10-25T04:01:27.782Z,2.23
2022-10-25T04:03:54.455Z,2.10
2022-10-25T04:06:21.060Z,2.13
2022-10-25T04:08:47.674Z,2.70
2022-10-25T04:11:14.260Z,2.00
2022-10-25T04:13:40.872Z,2.00
2022-10-25T04:16:08.756Z,2.00
2022-10-25T04:18:35.856Z,2.20
2022-10-25T04:21:02.469Z,2.57
2022-10-25T04:23:29.031Z,2.23
2022-10-25T04:25:56.855Z,2.07
2022-10-25T04:28:24.203Z,1.77
2022-10-25T04:30:50.847Z,2.60
2022-10-25T04:33:17.850Z,1.90
2022-10-25T04:35:44.506Z,2.27
2022-10-25T04:38:11.620Z,2.13
2022-10-25T04:40:38.385Z,1.90
2022-10-25T04:43:05.005Z,2.27
2022-10-25T04:45:31.657Z,2.57
2022-10-25T04:47:58.338Z,1.90
2022-10-25T04:50:24.989Z,1.90
2022-10-25T04:52:51.603Z,2.00
2022-10-25T04:55:18.217Z,2.50
2022-10-25T04:57:44.814Z,2.20
2022-10-25T05:00:11.973Z,2.07
2022-10-25T05:02:38.831Z,2.17
2022-10-25T05:05:06.000Z,1.67
2022-10-25T05:07:32.716Z,3.10
2022-10-25T05:09:59.355Z,2.70
2022-10-25T05:12:25.972Z,2.67
2022-10-25T05:14:52.622Z,1.80
2022-10-25T05:17:19.364Z,2.07
2022-10-25T05:19:46.016Z,2.13
2022-10-25T05:22:12.623Z,1.80
2022-10-25T05:24:39.236Z,2.10
2022-10-25T05:27:06.115Z,2.50
2022-10-25T05:29:32.687Z,2.00
2022-10-25T05:31:59.741Z,2.30
2022-10-25T05:34:27.280Z,2.00
2022-10-25T05:36:54.470Z,1.60
2022-10-25T05:39:21.098Z,1.90
2022-10-25T05:41:47.705Z,1.80
2022-10-25T05:44:16.481Z,2.17
2022-10-25T05:46:44.019Z,2.20
2022-10-25T05:49:11.559Z,1.90
2022-10-25T05:51:38.694Z,1.37
2022-10-25T05:54:09.238Z,2.20
2022-10-25T05:56:36.609Z,1.70
2022-10-25T05:59:08.635Z,1.97
2022-10-25T06:01:37.436Z,1.67
2022-10-25T06:04:04.592Z,1.63
2022-10-25T06:06:31.233Z,1.93
2022-10-25T06:08:59.131Z,1.93
2022-10-25T06:11:27.273Z,1.93
2022-10-25T06:13:54.396Z,1.97
2022-10-25T06:16:22.084Z,2.73
2022-10-25T06:18:48.869Z,2.47
2022-10-25T06:21:21.107Z,2.23
2022-10-25T06:23:48.643Z,2.60
2022-10-25T06:26:18.621Z,2.90
2022-10-25T06:28:45.680Z,2.00
2022-10-25T06:31:15.423Z,2.53
2022-10-25T06:33:42.765Z,2.60
2022-10-25T06:36:16.303Z,2.10
2022-10-25T06:38:44.002Z,2.87
2022-10-25T06:41:16.362Z,2.43
2022-10-25T06:43:43.015Z,2.70
2022-10-25T06:46:33.117Z,2.80
2022-10-25T06:49:01.500Z,2.80
2022-10-25T06:51:29.075Z,3.10
2022-10-25T06:53:57.232Z,2.67
2022-10-25T06:56:24.680Z,3.03
2022-10-25T06:58:51.546Z,2.83
2022-10-25T07:01:20.395Z,3.20
2022-10-25T07:03:47.685Z,2.70
2022-10-25T07:06:16.594Z,2.30
2022-10-25T07:08:45.234Z,2.20
2022-10-25T07:11:17.168Z,2.80
2022-10-25T07:13:44.478Z,2.83
2022-10-25T07:16:15.080Z,2.37
2022-10-25T07:18:42.221Z,2.50
2022-10-25T07:21:12.413Z,2.20
2022-10-25T07:23:42.407Z,2.10
2022-10-25T07:26:13.968Z,2.20
2022-10-25T07:28:42.612Z,3.03
2022-10-25T07:31:12.723Z,2.80
2022-10-25T07:33:39.454Z,2.60
2022-10-25T07:36:10.771Z,2.30
2022-10-25T07:38:38.454Z,2.83
2022-10-25T07:41:05.393Z,2.63
2022-10-25T07:43:32.163Z,2.07
2022-10-25T07:45:58.821Z,2.70
2022-10-25T07:48:26.111Z,2.67
2022-10-25T07:50:52.774Z,2.30
2022-10-25T07:53:19.461Z,2.30
2022-10-25T07:55:54.678Z,2.40
2022-10-25T07:58:21.545Z,2.90
2022-10-25T08:00:48.546Z,2.80
2022-10-25T08:03:17.018Z,2.10
2022-10-25T08:05:45.602Z,2.87
2022-10-25T08:08:13.234Z,2.57
2022-10-25T08:10:42.198Z,2.70
2022-10-25T08:13:08.923Z,2.00
2022-10-25T08:15:36.307Z,2.00
2022-10-25T08:18:04.344Z,2.00
2022-10-25T08:20:56.353Z,1.80
2022-10-25T08:23:17.731Z,2.03
2022-10-25T08:25:44.867Z,1.90
2022-10-25T08:28:11.591Z,1.60
2022-10-25T08:30:39.828Z,1.80
2022-10-25T08:33:10.617Z,1.70
2022-10-25T08:35:38.175Z,2.07
2022-10-25T08:38:05.443Z,1.70
2022-10-25T08:40:53.964Z,1.57
2022-10-25T08:43:51.572Z,1.67
2022-10-25T08:46:21.885Z,1.30
2022-10-25T08:49:06.637Z,1.60
2022-10-25T08:51:37.831Z,1.60
2022-10-25T08:54:21.211Z,1.30
2022-10-25T08:57:03.515Z,1.80
2022-10-25T08:59:41.039Z,1.57
2022-10-25T09:02:22.102Z,1.40
2022-10-25T09:04:48.874Z,1.10
2022-10-25T09:07:33.220Z,1.27
2022-10-25T09:10:07.229Z,1.40
2022-10-25T09:12:50.089Z,1.10
2022-10-25T09:15:26.159Z,1.43
2022-10-25T09:17:54.343Z,1.00
2022-10-25T09:20:26.863Z,0.87
2022-10-25T09:23:05.808Z,1.00
2022-10-25T09:25:56.016Z,1.00
2022-10-25T09:28:30.004Z,0.97
2022-10-25T09:30:59.330Z,0.67
2022-10-25T09:33:30.398Z,0.90
2022-10-25T09:35:58.801Z,0.90
2022-10-25T09:38:47.582Z,1.10
2022-10-25T09:41:31.241Z,1.00
2022-10-25T09:44:24.893Z,1.10
2022-10-25T09:46:56.727Z,1.23
2022-10-25T09:49:31.862Z,1.10
2022-10-25T09:52:07.265Z,1.03
2022-10-25T09:55:11.939Z,1.20
2022-10-25T09:57:38.691Z,0.90
2022-10-25T10:00:05.942Z,1.47
2022-10-25T10:02:32.727Z,1.20
2022-10-25T10:04:59.593Z,1.10
2022-10-25T10:07:36.799Z,1.23
2022-10-25T10:10:08.745Z,1.00
2022-10-25T10:12:47.290Z,1.10
2022-10-25T10:15:23.563Z,0.90
2022-10-25T10:18:21.072Z,0.60
2022-10-25T10:21:11.696Z,1.00
2022-10-25T10:23:54.558Z,1.00
2022-10-25T10:26:43.353Z,0.87
2022-10-25T10:29:16.705Z,1.87
2022-10-25T10:31:48.033Z,0.90
2022-10-25T10:34:31.911Z,1.07
2022-10-25T10:37:17.963Z,0.50
2022-10-25T10:39:50.874Z,0.60
2022-10-25T10:42:23.315Z,0.70
2022-10-25T10:45:08.155Z,1.00
2022-10-25T10:47:35.926Z,0.90
2022-10-25T10:50:25.638Z,0.53
2022-10-25T10:52:59.918Z,0.80
2022-10-25T10:55:30.077Z,1.13
2022-10-25T10:58:14.733Z,1.57
2022-10-25T11:01:02.516Z,1.20
2022-10-25T11:03:48.819Z,1.03
2022-10-25T11:06:29.218Z,0.77
2022-10-25T11:09:16.885Z,0.87
2022-10-25T11:11:45.101Z,0.60
2022-10-25T11:14:16.729Z,0.60
2022-10-25T11:17:22.256Z,0.63
2022-10-25T11:20:24.950Z,0.67
2022-10-25T11:23:18.584Z,0.67
2022-10-25T11:26:04.252Z,1.00
2022-10-25T11:29:24.755Z,0.50
2022-10-25T11:32:14.560Z,0.60
2022-10-25T11:35:08.687Z,0.50
2022-10-25T11:37:52.901Z,0.67
2022-10-25T11:40:23.110Z,0.70
2022-10-25T11:43:04.665Z,0.60
2022-10-25T11:45:41.673Z,0.70
2022-10-25T11:48:15.693Z,0.60
2022-10-25T11:51:00.049Z,0.70
2022-10-25T11:53:51.960Z,0.70
2022-10-25T11:56:24.952Z,0.60
2022-10-25T11:59:10.015Z,0.60
2022-10-25T12:02:22.516Z,0.60
2022-10-25T12:05:03.287Z,0.60
2022-10-25T12:07:40.143Z,1.20
2022-10-25T12:10:15.833Z,0.60
2022-10-25T12:12:58.378Z,0.40
2022-10-25T12:15:30.527Z,0.70
2022-10-25T12:17:57.256Z,0.67
2022-10-25T12:20:29.848Z,0.50
2022-10-25T12:23:00.392Z,0.50
2022-10-25T12:25:35.646Z,0.77
2022-10-25T12:28:28.856Z,0.50
2022-10-25T12:31:15.700Z,0.87
2022-10-25T12:33:50.211Z,0.50
2022-10-25T12:37:12.153Z,0.57
2022-10-25T12:39:40.988Z,0.47
2022-10-25T12:42:28.072Z,0.50
2022-10-25T12:44:57.663Z,0.57
2022-10-25T12:47:45.874Z,0.40
2022-10-25T12:50:24.505Z,0.40
2022-10-25T12:53:28.759Z,0.60
2022-10-25T12:56:15.163Z,0.43
2022-10-25T12:59:00.585Z,0.47
2022-10-25T13:01:55.087Z,0.40
2022-10-25T13:04:57.006Z,0.50
2022-10-25T13:07:24.496Z,0.23
2022-10-25T13:09:51.799Z,0.40
2022-10-25T13:12:30.595Z,0.50
2022-10-25T13:14:59.093Z,0.40
2022-10-25T13:17:25.651Z,0.43
2022-10-25T13:22:48.867Z,0.60
2022-10-25T13:25:17.411Z,0.40
2022-10-25T13:28:15.888Z,0.40
2022-10-25T13:30:43.896Z,0.50
2022-10-25T13:33:17.428Z,0.40
2022-10-25T13:35:44.055Z,0.60
2022-10-25T13:38:21.764Z,0.40
2022-10-25T13:41:15.919Z,0.50
2022-10-25T13:43:59.447Z,0.50
2022-10-25T13:46:33.842Z,0.40
2022-10-25T13:49:04.672Z,0.60
2022-10-25T13:51:32.777Z,0.40
2022-10-25T13:54:05.973Z,0.30
2022-10-25T13:56:36.921Z,0.50
2022-10-25T13:59:04.323Z,0.50
2022-10-25T14:01:32.000Z,0.23
2022-10-25T14:04:01.651Z,0.40
2022-10-25T14:06:33.719Z,0.50
2022-10-25T14:09:11.988Z,0.57
2022-10-25T14:12:01.401Z,0.83
2022-10-25T14:14:53.145Z,0.40
2022-10-25T14:17:37.844Z,0.53
2022-10-25T14:20:24.679Z,0.50
2022-10-25T14:23:01.670Z,0.40
2022-10-25T14:25:34.293Z,0.60
2022-10-25T14:28:10.100Z,0.60
2022-10-25T14:30:57.404Z,0.70
2022-10-25T14:33:26.853Z,0.20
2022-10-25T14:36:04.799Z,0.50
2022-10-25T14:38:32.967Z,0.60
2022-10-25T14:41:02.640Z,0.90
2022-10-25T14:43:36.192Z,1.17
2022-10-25T14:46:05.834Z,0.80
2022-10-25T14:48:33.458Z,1.20
2022-10-25T14:51:08.364Z,0.73
2022-10-25T14:53:37.448Z,0.67
2022-10-25T14:56:05.664Z,0.67
2022-10-25T14:58:43.141Z,0.73
2022-10-25T15:01:12.352Z,0.77
2022-10-25T15:03:42.673Z,0.87
2022-10-25T15:06:09.793Z,0.93
2022-10-25T15:08:39.243Z,0.80
2022-10-25T15:11:13.414Z,0.90
2022-10-25T15:13:45.768Z,0.57
2022-10-25T15:16:38.574Z,0.87
2022-10-25T15:19:19.351Z,0.73
2022-10-25T15:21:51.809Z,0.80
2022-10-25T15:24:26.606Z,1.03
2022-10-25T15:27:08.434Z,0.77
2022-10-25T15:29:41.387Z,0.60
2022-10-25T15:32:20.831Z,0.80
2022-10-25T15:34:51.131Z,0.80
2022-10-25T15:37:19.560Z,0.90
2022-10-25T15:39:48.380Z,1.13
2022-10-25T15:42:15.746Z,0.90
2022-10-25T15:44:42.829Z,0.83
2022-10-25T15:47:21.364Z,1.03
2022-10-25T15:49:52.814Z,0.83
2022-10-25T15:52:19.850Z,0.73
2022-10-25T15:54:46.791Z,0.60
2022-10-25T15:57:13.430Z,0.60
2022-10-25T15:59:40.078Z,0.70
2022-10-25T16:02:17.897Z,0.80
2022-10-25T16:04:44.740Z,0.70
2022-10-25T16:07:12.574Z,1.00
2022-10-25T16:09:39.448Z,0.50
2022-10-25T16:12:08.903Z,0.93
2022-10-25T16:14:37.219Z,0.93
2022-10-25T16:17:03.960Z,0.90
2022-10-25T16:19:31.516Z,0.80
2022-10-25T16:21:59.179Z,0.70
2022-10-25T16:24:25.982Z,0.77
2022-10-25T16:26:52.723Z,1.10
2022-10-25T16:29:24.664Z,0.60
2022-10-25T16:31:52.260Z,1.13
2022-10-25T16:34:19.541Z,1.00
2022-10-25T16:36:47.749Z,0.97
2022-10-25T16:39:14.904Z,1.07
2022-10-25T16:41:43.897Z,0.70
2022-10-25T16:44:17.139Z,0.90
2022-10-25T16:46:44.397Z,0.80
2022-10-25T16:49:11.650Z,0.90
2022-10-25T16:51:39.524Z,0.93
2022-10-25T16:54:06.931Z,0.90
2022-10-25T16:56:33.686Z,0.97
2022-10-25T16:59:00.668Z,1.00
2022-10-25T17:01:32.248Z,0.83
2022-10-25T17:03:59.913Z,0.90
2022-10-25T17:06:42.929Z,1.57
2022-10-25T17:09:10.553Z,1.00
2022-10-25T17:11:37.401Z,1.20
2022-10-25T17:14:04.553Z,0.80
2022-10-25T17:16:31.232Z,1.00
2022-10-25T17:18:57.932Z,0.80
2022-10-25T17:21:24.872Z,1.03
2022-10-25T17:23:51.515Z,1.10
2022-10-25T17:26:18.234Z,0.97
2022-10-25T17:28:45.053Z,1.00
2022-10-25T17:31:13.561Z,1.20
2022-10-25T17:33:43.603Z,1.40
2022-10-25T17:36:18.379Z,1.40
2022-10-25T17:38:45.264Z,1.30
2022-10-25T17:41:13.221Z,1.43
2022-10-25T17:43:41.083Z,1.70
2022-10-25T17:46:23.478Z,1.60
2022-10-25T17:48:55.377Z,2.47
2022-10-25T17:51:23.176Z,1.13
2022-10-25T17:53:54.240Z,1.13
2022-10-25T17:56:22.959Z,1.57
2022-10-25T17:58:50.306Z,1.53
2022-10-25T18:01:21.925Z,1.30
2022-10-25T18:03:49.811Z,1.43
2022-10-25T18:06:19.056Z,1.53
2022-10-25T18:08:50.270Z,1.40
2022-10-25T18:11:24.660Z,1.50
2022-10-25T18:13:53.722Z,1.27
2022-10-25T18:16:22.071Z,1.57
2022-10-25T18:18:49.006Z,1.63
2022-10-25T18:21:16.511Z,1.80
2022-10-25T18:23:43.454Z,1.80
2022-10-25T18:26:12.207Z,2.33
2022-10-25T18:28:39.559Z,1.93
2022-10-25T18:31:07.643Z,2.27
2022-10-25T18:33:38.045Z,2.57
2022-10-25T18:36:08.920Z,2.20
2022-10-25T18:38:35.727Z,2.47
2022-10-25T18:41:18.051Z,1.80
2022-10-25T18:43:44.872Z,1.80
2022-10-25T18:46:12.412Z,1.70
2022-10-25T18:48:39.332Z,1.67
2022-10-25T18:51:10.945Z,1.87
2022-10-25T18:53:39.387Z,1.70
2022-10-25T18:56:10.684Z,1.63
2022-10-25T18:58:40.974Z,1.60
2022-10-25T19:01:17.011Z,1.60
2022-10-25T19:03:44.581Z,1.70
2022-10-25T19:06:12.431Z,2.87
2022-10-25T19:08:39.951Z,2.13
2022-10-25T19:11:12.178Z,1.97
2022-10-25T19:13:39.697Z,1.83
2022-10-25T19:16:07.512Z,1.77
2022-10-25T19:18:36.111Z,1.63
2022-10-25T19:21:06.034Z,1.33
2022-10-25T19:23:33.794Z,1.80
2022-10-25T19:26:05.590Z,1.90
2022-10-25T19:28:33.071Z,1.63
2022-10-25T19:31:14.317Z,2.33
2022-10-25T19:33:48.641Z,1.57
2022-10-25T19:36:17.074Z,1.70
2022-10-25T19:38:48.848Z,2.07
2022-10-25T19:41:19.597Z,1.90
2022-10-25T19:43:47.196Z,2.27
2022-10-25T19:46:14.263Z,2.57
2022-10-25T19:48:41.488Z,2.43
2022-10-25T19:51:19.225Z,2.43
2022-10-25T19:53:46.348Z,2.97
2022-10-25T19:56:15.935Z,2.40
2022-10-25T19:58:43.028Z,2.30
2022-10-25T20:01:13.010Z,2.70
2022-10-25T20:03:40.623Z,2.43
2022-10-25T20:06:20.012Z,2.47
2022-10-25T20:08:50.075Z,2.30
2022-10-25T20:11:18.091Z,2.50
2022-10-25T20:13:45.692Z,2.97
2022-10-25T20:16:14.078Z,2.23
2022-10-25T20:18:42.209Z,2.37
2022-10-25T20:21:11.714Z,2.57
2022-10-25T20:23:39.807Z,2.60
2022-10-25T20:26:14.686Z,2.20
2022-10-25T20:28:42.502Z,2.20
2022-10-25T20:31:10.351Z,2.10
2022-10-25T20:33:37.765Z,2.47
2022-10-25T20:36:10.302Z,2.50
2022-10-25T20:38:37.785Z,2.20
2022-10-25T20:41:13.963Z,2.60
2022-10-25T20:43:43.122Z,2.07
2022-10-25T20:46:10.186Z,2.23
2022-10-25T20:48:37.183Z,2.50
2022-10-25T20:51:06.872Z,2.70
2022-10-25T20:53:36.564Z,2.97
2022-10-25T20:56:04.061Z,2.80
2022-10-25T20:58:30.998Z,2.57
2022-10-25T21:00:57.945Z,2.40
2022-10-25T21:03:29.442Z,2.70
2022-10-25T21:06:04.523Z,2.63
2022-10-25T21:08:32.194Z,2.40
2022-10-25T21:11:01.109Z,2.90
2022-10-25T21:13:30.730Z,2.60
2022-10-25T21:15:57.917Z,2.63
2022-10-25T21:18:28.665Z,3.00
2022-10-25T21:21:00.983Z,3.20
2022-10-25T21:23:28.255Z,2.90
2022-10-25T21:26:02.844Z,2.83
2022-10-25T21:28:34.969Z,2.90
2022-10-25T21:31:12.965Z,3.30
2022-10-25T21:33:41.732Z,3.27
2022-10-25T21:36:11.395Z,2.50
2022-10-25T21:38:38.387Z,2.57
2022-10-25T21:41:20.611Z,2.63
2022-10-25T21:43:49.001Z,2.73
2022-10-25T21:46:17.465Z,2.70
2022-10-25T21:48:47.099Z,2.93
2022-10-25T21:51:14.580Z,3.40
2022-10-25T21:53:41.324Z,2.70
2022-10-25T21:56:10.794Z,3.80
2022-10-25T21:58:39.177Z,2.87
2022-10-25T22:01:14.498Z,2.93
2022-10-25T22:03:41.534Z,2.63
2022-10-25T22:06:12.880Z,3.07
2022-10-25T22:08:40.149Z,2.43
2022-10-25T22:11:12.599Z,2.50
2022-10-25T22:13:39.761Z,2.37
2022-10-25T22:16:15.391Z,2.40
2022-10-25T22:18:42.725Z,2.20
2022-10-25T22:21:11.674Z,2.30
2022-10-25T22:23:39.403Z,1.70
2022-10-25T22:26:08.514Z,2.03
2022-10-25T22:28:38.376Z,1.77
2022-10-25T22:31:12.904Z,2.00
2022-10-25T22:33:40.729Z,1.50
2022-10-25T22:36:13.629Z,2.30
2022-10-25T22:38:40.278Z,2.60
2022-10-25T22:41:14.194Z,2.57
2022-10-25T22:43:41.360Z,3.17
2022-10-25T22:46:11.489Z,3.33
2022-10-25T22:48:39.681Z,3.20
2022-10-25T22:51:06.857Z,3.90
2022-10-25T22:53:37.624Z,3.37
2022-10-25T22:56:04.258Z,3.00
2022-10-25T22:58:32.524Z,2.87
2022-10-25T23:03:37.855Z,3.10
2022-10-25T23:06:06.072Z,3.30
2022-10-25T23:08:33.022Z,2.93
2022-10-25T23:11:01.950Z,2.97
2022-10-25T23:13:33.494Z,3.60
2022-10-25T23:16:00.672Z,2.77
2022-10-25T23:18:27.577Z,2.60
2022-10-25T23:20:59.097Z,2.80
2022-10-25T23:23:27.022Z,2.67
2022-10-25T23:25:54.488Z,2.80
2022-10-25T23:28:21.484Z,2.10
2022-10-25T23:30:48.093Z,2.60
2022-10-25T23:33:15.357Z,2.33
2022-10-25T23:35:42.117Z,2.27
2022-10-25T23:38:12.907Z,2.47
2022-10-25T23:40:40.392Z,2.57
2022-10-25T23:43:07.312Z,1.77
2022-10-25T23:45:33.928Z,2.20
2022-10-25T23:48:00.686Z,1.90
2022-10-25T23:50:27.299Z,2.27
2022-10-25T23:52:53.865Z,2.47
2022-10-25T23:55:20.491Z,2.30
2022-10-25T23:57:47.102Z,2.60
